West Springfield, Massachusetts
Current Conditions -  °F | °C
As of 7:53 AM on Saturday 22 Nov 2014 (Local Time) from KBAF Reporting Station
Clear Clear  
Wind Chill: 16°   Ceiling: Unl
Heat Index: 22°   Visibility: 10mi
Dew Point: 13°   Wind: 5mph
Humidity: 68%   Direction: 190°S
Pressure: 30.4"   Gusts: NA
Location:  42.11°N, 72.62°W
Report Text: KBAF 221253Z 19004KT 10SM CLR M06/M11 A3040 RMK AO2 SLP304 T10561106
Loading
Personal Weather Stations






























Interactive Weather Map New forecast layout! Learn more

10-Day Weather Forecast

Advertisements
Track Severe Weather on mobile